createdAt,value
2019-05-11T00:00:30.139Z,72.22
2019-05-11T00:02:58.779Z,72.22
2019-05-11T00:05:27.421Z,72.54
2019-05-11T00:07:56.123Z,72.61
2019-05-11T00:10:24.765Z,73.43
2019-05-11T00:12:53.401Z,72.85
2019-05-11T00:15:22.049Z,72.51
2019-05-11T00:17:50.696Z,73.54
2019-05-11T00:20:19.346Z,72.57
2019-05-11T00:22:47.976Z,73.52
2019-05-11T00:25:16.619Z,72.59
2019-05-11T00:27:45.320Z,72.88
2019-05-11T00:30:14.141Z,71.94
2019-05-11T00:32:42.760Z,71.68
2019-05-11T00:35:11.606Z,71.68
2019-05-11T00:37:40.273Z,70.10
2019-05-11T00:40:14.483Z,70.02
2019-05-11T00:42:39.602Z,70.76
2019-05-11T00:45:08.348Z,71.34
2019-05-11T00:47:37.053Z,71.20
2019-05-11T00:50:08.091Z,70.30
2019-05-11T00:52:36.738Z,70.40
2019-05-11T00:55:06.775Z,71.07
2019-05-11T00:57:35.430Z,70.68
2019-05-11T01:00:05.028Z,70.87
2019-05-11T01:02:33.670Z,70.97
2019-05-11T01:05:02.330Z,71.25
2019-05-11T01:07:30.946Z,72.04
2019-05-11T01:09:59.593Z,71.88
2019-05-11T01:12:28.235Z,72.60
2019-05-11T01:14:56.868Z,72.13
2019-05-11T01:17:25.515Z,72.37
2019-05-11T01:19:54.158Z,71.61
2019-05-11T01:22:22.814Z,72.14
2019-05-11T01:24:51.448Z,71.78
2019-05-11T01:27:20.118Z,72.26
2019-05-11T01:29:48.758Z,71.89
2019-05-11T01:32:17.399Z,71.89
2019-05-11T01:34:46.038Z,73.14
2019-05-11T01:37:14.670Z,72.95
2019-05-11T01:39:43.328Z,73.28
2019-05-11T01:42:11.970Z,73.47
2019-05-11T01:44:40.606Z,73.81
2019-05-11T01:47:09.304Z,73.64
2019-05-11T01:49:38.046Z,73.63
2019-05-11T01:52:06.690Z,74.22
2019-05-11T01:54:35.326Z,73.72
2019-05-11T01:57:03.967Z,74.05
2019-05-11T01:59:32.634Z,74.05
2019-05-11T02:02:01.269Z,74.58
2019-05-11T02:04:29.918Z,74.09
2019-05-11T02:06:58.849Z,73.90
2019-05-11T02:09:28.031Z,74.12
2019-05-11T02:11:56.664Z,74.35
2019-05-11T02:14:25.301Z,74.67
2019-05-11T02:16:53.945Z,74.04
2019-05-11T02:19:22.582Z,74.14
2019-05-11T02:21:51.240Z,74.02
2019-05-11T02:24:19.797Z,74.31
2019-05-11T02:26:48.446Z,73.49
2019-05-11T02:29:17.090Z,73.92
2019-05-11T02:31:45.743Z,74.20
2019-05-11T02:34:14.388Z,73.89
2019-05-11T02:36:43.052Z,73.59
2019-05-11T02:39:11.691Z,73.41
2019-05-11T02:41:40.344Z,73.53
2019-05-11T02:44:08.981Z,73.54
2019-05-11T02:46:37.701Z,73.86
2019-05-11T02:49:06.481Z,73.33
2019-05-11T02:51:35.824Z,74.02
2019-05-11T02:54:04.658Z,74.33
2019-05-11T02:56:33.292Z,75.19
2019-05-11T02:59:01.941Z,75.19
2019-05-11T03:01:30.559Z,74.76
2019-05-11T03:03:59.201Z,75.37
2019-05-11T03:06:27.858Z,75.44
2019-05-11T03:08:56.493Z,75.98
2019-05-11T03:11:25.130Z,75.72
2019-05-11T03:13:53.695Z,75.28
2019-05-11T03:16:22.320Z,75.13
2019-05-11T03:18:50.966Z,75.13
2019-05-11T03:21:19.603Z,74.89
2019-05-11T03:23:48.282Z,74.24
2019-05-11T03:26:16.987Z,74.44
2019-05-11T03:28:45.646Z,75.36
2019-05-11T03:31:14.285Z,75.62
2019-05-11T03:33:42.924Z,74.84
2019-05-11T03:36:11.558Z,75.08
2019-05-11T03:38:40.249Z,75.19
2019-05-11T03:41:08.882Z,74.89
2019-05-11T03:43:37.597Z,74.54
2019-05-11T03:46:06.242Z,74.07
2019-05-11T03:48:34.884Z,73.98
2019-05-11T03:51:03.543Z,73.68
2019-05-11T03:53:32.161Z,74.15
2019-05-11T03:56:00.808Z,74.11
2019-05-11T03:58:29.455Z,73.95
2019-05-11T04:00:58.099Z,74.25
2019-05-11T04:03:26.819Z,74.69
2019-05-11T04:05:55.476Z,74.49
2019-05-11T04:08:24.143Z,73.23
2019-05-11T04:10:52.759Z,73.72
2019-05-11T04:13:21.412Z,73.30
2019-05-11T04:15:50.084Z,73.89
2019-05-11T04:18:18.657Z,73.04
2019-05-11T04:20:47.281Z,72.65
2019-05-11T04:23:15.920Z,72.41
2019-05-11T04:25:44.678Z,72.13
2019-05-11T04:28:13.318Z,72.13
2019-05-11T04:30:41.953Z,72.36
2019-05-11T04:33:10.585Z,71.56
2019-05-11T04:35:39.247Z,71.94
2019-05-11T04:38:07.877Z,72.07
2019-05-11T04:40:36.449Z,71.17
2019-05-11T04:43:05.072Z,70.77
2019-05-11T04:45:33.701Z,70.42
2019-05-11T04:48:02.344Z,70.01
2019-05-11T04:50:30.903Z,69.59
2019-05-11T04:52:59.395Z,69.09
2019-05-11T04:55:28.117Z,69.88
2019-05-11T04:57:56.710Z,69.11
2019-05-11T05:00:25.363Z,68.79
2019-05-11T05:02:53.989Z,69.18
2019-05-11T05:05:22.630Z,68.01
2019-05-11T05:07:51.265Z,68.97
2019-05-11T05:10:22.262Z,69.08
2019-05-11T05:12:51.328Z,69.60
2019-05-11T05:15:20.637Z,68.73
2019-05-11T05:17:49.275Z,70.26
2019-05-11T05:20:18.081Z,69.76
2019-05-11T05:22:46.742Z,70.06
2019-05-11T05:25:15.442Z,68.59
2019-05-11T05:27:44.049Z,69.02
2019-05-11T05:30:13.006Z,67.99
2019-05-11T05:32:41.641Z,68.82
2019-05-11T05:35:11.080Z,66.24
2019-05-11T05:37:39.734Z,67.78
2019-05-11T05:40:08.579Z,66.37
2019-05-11T05:42:37.214Z,65.47
2019-05-11T05:45:08.923Z,64.71
2019-05-11T05:47:37.569Z,63.71
2019-05-11T05:50:08.629Z,61.36
2019-05-11T05:52:37.399Z,60.66
2019-05-11T05:55:07.038Z,60.31
2019-05-11T05:57:35.827Z,58.32
2019-05-11T06:00:08.242Z,58.97
2019-05-11T06:02:36.908Z,57.74
2019-05-11T06:05:09.909Z,56.27
2019-05-11T06:07:38.830Z,54.68
2019-05-11T06:10:08.314Z,55.30
2019-05-11T06:12:36.974Z,52.61
2019-05-11T06:15:07.328Z,52.39
2019-05-11T06:17:36.148Z,51.04
2019-05-11T06:20:06.704Z,51.18
2019-05-11T06:22:37.333Z,49.50
2019-05-11T06:25:06.898Z,50.02
2019-05-11T06:27:36.293Z,48.64
2019-05-11T06:30:07.693Z,48.79
2019-05-11T06:32:36.467Z,45.80
2019-05-11T06:35:08.818Z,45.18
2019-05-11T06:37:37.554Z,43.88
2019-05-11T06:40:10.053Z,42.44
2019-05-11T06:42:38.734Z,40.79
2019-05-11T06:45:08.013Z,40.47
2019-05-11T06:47:38.249Z,39.29
2019-05-11T06:50:11.853Z,39.67
2019-05-11T06:52:40.585Z,39.01
2019-05-11T06:55:09.327Z,39.03
2019-05-11T06:57:37.956Z,37.34
2019-05-11T07:00:07.194Z,37.42
2019-05-11T07:02:35.811Z,35.69
2019-05-11T07:05:06.396Z,36.04
2019-05-11T07:07:46.972Z,34.84
2019-05-11T07:10:09.467Z,34.90
2019-05-11T07:12:38.206Z,33.51
2019-05-11T07:15:09.105Z,33.18
2019-05-11T07:17:39.386Z,31.22
2019-05-11T07:20:10.017Z,29.23
2019-05-11T07:22:38.716Z,27.75
2019-05-11T07:25:07.718Z,28.18
2019-05-11T07:27:38.111Z,24.68
2019-05-11T07:30:10.779Z,23.79
2019-05-11T07:32:41.370Z,23.27
2019-05-11T07:35:10.024Z,24.74
2019-05-11T07:37:38.941Z,23.11
2019-05-11T07:40:09.547Z,21.37
2019-05-11T07:42:41.279Z,20.07
2019-05-11T07:45:12.259Z,17.41
2019-05-11T07:47:42.563Z,14.96
2019-05-11T07:50:13.647Z,12.96
2019-05-11T07:52:43.097Z,12.63
2019-05-11T07:55:11.980Z,13.37
2019-05-11T07:57:42.252Z,13.41
2019-05-11T08:00:12.097Z,14.42
2019-05-11T08:02:42.372Z,15.73
2019-05-11T08:05:11.529Z,14.63
2019-05-11T08:07:40.329Z,12.58
2019-05-11T08:10:09.980Z,11.43
2019-05-11T08:12:40.063Z,10.41
2019-05-11T08:15:13.255Z,10.39
2019-05-11T08:17:39.793Z,11.85
2019-05-11T08:20:08.793Z,13.27
2019-05-11T08:22:37.864Z,15.17
2019-05-11T08:25:09.290Z,16.36
2019-05-11T08:27:38.348Z,17.14
2019-05-11T08:30:12.716Z,16.63
2019-05-11T08:32:42.534Z,16.72
2019-05-11T08:35:11.615Z,16.22
2019-05-11T08:37:41.001Z,14.51
2019-05-11T08:40:10.195Z,13.02
2019-05-11T08:42:38.964Z,13.17
2019-05-11T08:45:19.537Z,13.55
2019-05-11T08:47:39.347Z,13.57
2019-05-11T08:50:08.474Z,12.42
2019-05-11T08:52:38.721Z,10.61
2019-05-11T08:55:08.478Z,11.65
2019-05-11T08:57:38.726Z,12.92
2019-05-11T09:00:09.503Z,13.74
2019-05-11T09:02:46.627Z,13.83
2019-05-11T09:05:18.783Z,13.51
2019-05-11T09:07:48.561Z,14.44
2019-05-11T09:10:18.524Z,13.33
2019-05-11T09:12:48.866Z,11.47
2019-05-11T09:15:32.534Z,10.85
2019-05-11T09:17:49.641Z,10.42
2019-05-11T09:20:20.025Z,13.26
2019-05-11T09:22:48.923Z,14.35
2019-05-11T09:25:18.476Z,16.34
2019-05-11T09:27:48.916Z,13.44
2019-05-11T09:30:20.142Z,12.12
2019-05-11T09:32:49.090Z,12.40
2019-05-11T09:35:18.943Z,11.85
2019-05-11T09:37:48.535Z,11.33
2019-05-11T09:40:19.454Z,9.26
2019-05-11T09:42:48.452Z,8.93
2019-05-11T09:45:18.998Z,8.65
2019-05-11T09:47:51.386Z,8.99
2019-05-11T09:50:20.182Z,11.87
2019-05-11T09:52:50.615Z,12.26
2019-05-11T09:55:19.473Z,14.19
2019-05-11T09:57:49.063Z,15.38
2019-05-11T10:00:19.105Z,16.46
2019-05-11T10:02:49.174Z,18.52
2019-05-11T10:05:18.864Z,16.37
2019-05-11T10:07:48.477Z,14.65
2019-05-11T10:10:18.620Z,13.44
2019-05-11T10:12:48.575Z,10.82
2019-05-11T10:15:19.369Z,9.12
2019-05-11T10:17:48.404Z,7.72
2019-05-11T10:20:18.180Z,7.59
2019-05-11T10:22:49.623Z,8.52
2019-05-11T10:25:18.500Z,9.55
2019-05-11T10:27:49.496Z,11.83
2019-05-11T10:30:19.368Z,13.49
2019-05-11T10:32:54.053Z,13.88
2019-05-11T10:35:23.708Z,14.47
2019-05-11T10:37:52.541Z,17.20
2019-05-11T10:40:21.327Z,17.28
2019-05-11T10:42:50.901Z,16.82
2019-05-11T10:45:22.380Z,17.55
2019-05-11T10:47:57.289Z,18.76
2019-05-11T10:50:23.771Z,17.80
2019-05-11T10:52:54.339Z,16.52
2019-05-11T10:55:23.319Z,14.18
2019-05-11T10:57:58.082Z,11.33
2019-05-11T11:00:28.293Z,10.59
2019-05-11T11:02:58.141Z,12.86
2019-05-11T11:05:27.934Z,14.29
2019-05-11T11:07:58.849Z,15.72
2019-05-11T11:10:29.609Z,18.12
2019-05-11T11:13:00.042Z,17.83
2019-05-11T11:15:29.038Z,17.51
2019-05-11T11:17:58.049Z,18.30
2019-05-11T11:20:28.058Z,18.40
2019-05-11T11:22:58.320Z,20.50
2019-05-11T11:25:28.414Z,22.51
2019-05-11T11:27:57.927Z,22.38
2019-05-11T11:30:29.370Z,24.96
2019-05-11T11:32:58.755Z,23.06
2019-05-11T11:35:29.395Z,23.05
2019-05-11T11:37:59.730Z,26.38
2019-05-11T11:40:28.490Z,26.46
2019-05-11T11:42:58.132Z,27.56
2019-05-11T11:45:28.841Z,26.68
2019-05-11T11:47:58.149Z,27.28
2019-05-11T11:50:28.391Z,26.95
2019-05-11T11:52:58.757Z,28.09
2019-05-11T11:55:29.119Z,28.39
2019-05-11T11:57:58.917Z,28.84
2019-05-11T12:00:28.872Z,26.83
2019-05-11T12:02:58.151Z,25.24
2019-05-11T12:05:28.484Z,27.16
2019-05-11T12:07:58.026Z,26.43
2019-05-11T12:10:29.092Z,28.38
2019-05-11T12:12:59.587Z,28.81
2019-05-11T12:15:28.508Z,25.92
2019-05-11T12:17:58.840Z,26.82
2019-05-11T12:20:28.776Z,25.46
2019-05-11T12:22:58.226Z,24.61
2019-05-11T12:25:28.349Z,24.07
2019-05-11T12:27:57.864Z,24.73
2019-05-11T12:30:28.523Z,25.94
2019-05-11T12:32:58.438Z,27.20
2019-05-11T12:35:28.492Z,27.53
2019-05-11T12:38:00.169Z,28.15
2019-05-11T12:40:28.940Z,29.79
2019-05-11T12:42:59.176Z,28.28
2019-05-11T12:45:29.539Z,27.39
2019-05-11T12:48:01.018Z,28.32
2019-05-11T12:50:29.841Z,28.51
2019-05-11T12:52:58.923Z,28.61
2019-05-11T12:55:28.602Z,28.59
2019-05-11T12:57:58.780Z,29.05
2019-05-11T13:00:31.386Z,29.92
2019-05-11T13:02:59.826Z,30.58
2019-05-11T13:05:30.162Z,31.94
2019-05-11T13:07:58.954Z,30.93
2019-05-11T13:10:30.724Z,32.71
2019-05-11T13:13:02.576Z,31.49
2019-05-11T13:15:30.023Z,32.23
2019-05-11T13:17:58.878Z,31.57
2019-05-11T13:20:28.614Z,33.82
2019-05-11T13:22:58.981Z,33.68
2019-05-11T13:25:28.326Z,33.83
2019-05-11T13:27:58.248Z,32.60
2019-05-11T13:30:29.009Z,32.61
2019-05-11T13:32:58.714Z,32.82
2019-05-11T13:35:28.470Z,31.58
2019-05-11T13:38:01.138Z,31.90
2019-05-11T13:40:31.277Z,31.10
2019-05-11T13:43:00.014Z,31.49
2019-05-11T13:45:30.152Z,32.01
2019-05-11T13:47:59.849Z,31.75
2019-05-11T13:50:31.345Z,30.58
2019-05-11T13:53:01.586Z,30.39
2019-05-11T13:55:30.347Z,31.13
2019-05-11T13:57:59.174Z,31.34
2019-05-11T14:00:29.613Z,31.36
2019-05-11T14:03:00.062Z,31.07
2019-05-11T14:05:29.716Z,32.16
2019-05-11T14:07:59.812Z,31.62
2019-05-11T14:10:31.539Z,33.54
2019-05-11T14:13:01.426Z,31.54
2019-05-11T14:15:30.165Z,30.89
2019-05-11T14:18:08.249Z,30.64
2019-05-11T14:20:31.349Z,31.03
2019-05-11T14:23:00.147Z,31.36
2019-05-11T14:25:30.933Z,31.88
2019-05-11T14:28:01.021Z,31.15
2019-05-11T14:30:31.105Z,31.28
2019-05-11T14:33:00.004Z,30.72
2019-05-11T14:35:29.885Z,30.40
2019-05-11T14:37:58.921Z,30.45
2019-05-11T14:40:28.240Z,31.48
2019-05-11T14:42:58.038Z,30.32
2019-05-11T14:45:28.946Z,29.36
2019-05-11T14:47:58.214Z,31.00
2019-05-11T14:50:28.346Z,31.06
2019-05-11T14:52:59.158Z,31.11
2019-05-11T14:55:29.371Z,31.85
2019-05-11T14:57:59.413Z,30.94
2019-05-11T15:00:29.028Z,31.12
2019-05-11T15:02:59.625Z,31.52
2019-05-11T15:05:29.182Z,31.54
2019-05-11T15:07:58.263Z,31.39
2019-05-11T15:10:29.283Z,31.84
2019-05-11T15:12:59.276Z,31.39
2019-05-11T15:15:31.113Z,31.01
2019-05-11T15:17:59.896Z,31.44
2019-05-11T15:39:28.720Z,32.69
2019-05-11T15:49:11.101Z,30.46
2019-05-11T15:52:26.384Z,30.56
2019-05-11T15:55:43.929Z,31.37
2019-05-11T15:58:14.255Z,32.09
2019-05-11T16:00:42.849Z,31.82
2019-05-11T16:03:11.466Z,32.20
2019-05-11T16:05:40.122Z,32.91
2019-05-11T16:08:08.786Z,32.32
2019-05-11T16:10:38.430Z,32.94
2019-05-11T16:13:09.234Z,32.94
2019-05-11T16:15:38.394Z,33.02
2019-05-11T16:18:08.361Z,32.81
2019-05-11T16:20:37.096Z,32.74
2019-05-11T16:23:05.696Z,32.99
2019-05-11T16:25:34.322Z,33.62
2019-05-11T16:28:02.969Z,33.53
2019-05-11T16:30:31.706Z,33.36
2019-05-11T16:33:00.364Z,34.79
2019-05-11T16:35:29.003Z,34.20
2019-05-11T16:37:59.106Z,33.74
2019-05-11T16:40:29.548Z,33.18
2019-05-11T16:42:58.874Z,33.34
2019-05-11T16:45:28.183Z,33.50
2019-05-11T16:47:58.921Z,32.91
2019-05-11T16:50:28.191Z,33.52
2019-05-11T16:52:58.492Z,33.67
2019-05-11T16:55:27.336Z,34.26
2019-05-11T16:57:58.609Z,34.15
2019-05-11T17:00:26.359Z,34.50
2019-05-11T17:02:54.991Z,36.01
2019-05-11T17:05:26.879Z,36.26
2019-05-11T17:07:58.593Z,35.55
2019-05-11T17:10:28.413Z,36.03
2019-05-11T17:12:58.124Z,36.62
2019-05-11T17:15:28.715Z,37.99
2019-05-11T17:17:58.723Z,38.58
2019-05-11T17:20:27.800Z,38.59
2019-05-11T17:22:56.496Z,38.25
2019-05-11T17:25:28.869Z,38.22
2019-05-11T17:27:58.800Z,39.60
2019-05-11T17:30:28.011Z,37.91
2019-05-11T17:32:59.174Z,40.36
2019-05-11T17:35:27.053Z,40.20
2019-05-11T17:37:55.693Z,40.75
2019-05-11T17:40:24.328Z,41.49
2019-05-11T17:42:54.082Z,42.13
2019-05-11T17:45:22.989Z,43.37
2019-05-11T17:47:51.631Z,43.87
2019-05-11T17:50:20.266Z,44.40
2019-05-11T17:52:48.939Z,44.49
2019-05-11T17:55:18.416Z,44.50
2019-05-11T17:57:49.490Z,44.46
2019-05-11T18:00:20.117Z,44.90
2019-05-11T18:02:49.027Z,45.04
2019-05-11T18:05:18.197Z,45.33
2019-05-11T18:07:47.032Z,45.64
2019-05-11T18:10:17.984Z,45.59
2019-05-11T18:12:48.555Z,45.93
2019-05-11T18:15:18.588Z,46.26
2019-05-11T18:17:48.429Z,46.33
2019-05-11T18:20:21.354Z,46.56
2019-05-11T18:22:49.075Z,47.00
2019-05-11T18:25:18.522Z,47.27
2019-05-11T18:27:48.270Z,47.19
2019-05-11T18:30:17.498Z,47.65
2019-05-11T18:32:48.586Z,48.35
2019-05-11T18:35:19.053Z,48.47
2019-05-11T18:37:47.774Z,48.47
2019-05-11T18:40:18.663Z,48.69
2019-05-11T18:42:48.812Z,49.07
2019-05-11T18:45:18.813Z,49.33
2019-05-11T18:47:49.053Z,49.44
2019-05-11T18:50:29.729Z,50.08
2019-05-11T18:52:49.138Z,49.37
2019-05-11T18:55:18.871Z,49.67
2019-05-11T18:57:48.956Z,50.17
2019-05-11T19:00:18.478Z,51.18
2019-05-11T19:02:49.529Z,50.24
2019-05-11T19:05:18.141Z,49.85
2019-05-11T19:07:48.253Z,51.11
2019-05-11T19:10:17.100Z,52.27
2019-05-11T19:12:48.407Z,51.35
2019-05-11T19:15:18.836Z,52.63
2019-05-11T19:17:49.085Z,50.60
2019-05-11T19:20:18.003Z,50.71
2019-05-11T19:22:46.805Z,51.08
2019-05-11T19:25:17.961Z,50.54
2019-05-11T19:27:50.362Z,50.08
2019-05-11T19:30:18.469Z,50.38
2019-05-11T19:32:48.736Z,52.25
2019-05-11T19:35:17.558Z,53.11
2019-05-11T19:37:48.722Z,53.98
2019-05-11T19:40:17.561Z,51.55
2019-05-11T19:42:54.121Z,51.51
2019-05-11T19:45:23.648Z,51.18
2019-05-11T19:47:52.273Z,51.34
2019-05-11T19:50:21.095Z,51.80
2019-05-11T19:52:49.839Z,51.97
2019-05-11T19:55:18.478Z,51.85
2019-05-11T19:57:48.285Z,51.78
2019-05-11T20:00:18.472Z,52.15
2019-05-11T20:02:47.346Z,52.22
2019-05-11T20:05:18.424Z,52.32
2019-05-11T20:07:48.625Z,52.33
2019-05-11T20:10:18.896Z,52.39
2019-05-11T20:12:48.536Z,52.61
2019-05-11T20:15:19.338Z,52.60
2019-05-11T20:17:48.803Z,52.60
2019-05-11T20:20:18.565Z,52.81
2019-05-11T20:22:48.356Z,52.54
2019-05-11T20:25:18.710Z,52.80
2019-05-11T20:27:48.594Z,52.88
2019-05-11T20:30:18.558Z,52.80
2019-05-11T20:32:48.552Z,53.14
2019-05-11T20:35:18.277Z,53.02
2019-05-11T20:37:47.054Z,53.21
2019-05-11T20:40:19.565Z,53.11
2019-05-11T20:42:50.646Z,53.33
2019-05-11T20:45:19.440Z,53.27
2019-05-11T20:47:48.922Z,53.29
2019-05-11T20:50:18.798Z,53.57
2019-05-11T20:52:48.232Z,53.60
2019-05-11T20:55:18.214Z,53.78
2019-05-11T20:57:48.393Z,53.78
2019-05-11T21:00:19.308Z,54.03
2019-05-11T21:02:49.015Z,54.07
2019-05-11T21:05:18.567Z,54.21
2019-05-11T21:07:47.402Z,54.00
2019-05-11T21:10:16.876Z,54.20
2019-05-11T21:12:45.619Z,54.34
2019-05-11T21:15:15.382Z,54.55
2019-05-11T21:17:43.988Z,54.61
2019-05-11T21:20:13.092Z,54.82
2019-05-11T21:22:41.833Z,54.73
2019-05-11T21:25:12.311Z,54.72
2019-05-11T21:27:41.046Z,54.95
2019-05-11T21:30:10.744Z,55.12
2019-05-11T21:32:40.296Z,55.44
2019-05-11T21:35:09.423Z,56.70
2019-05-11T21:37:39.077Z,57.89
2019-05-11T21:40:09.217Z,57.69
2019-05-11T21:42:38.874Z,58.27
2019-05-11T21:45:09.765Z,58.44
2019-05-11T21:47:39.679Z,59.56
2019-05-11T21:50:10.280Z,59.36
2019-05-11T21:52:39.107Z,60.20
2019-05-11T21:55:09.715Z,59.72
2019-05-11T21:57:38.661Z,60.00
2019-05-11T22:00:10.380Z,59.91
2019-05-11T22:02:39.209Z,60.60
2019-05-11T22:05:09.937Z,59.87
2019-05-11T22:07:41.983Z,59.75
2019-05-11T22:10:10.728Z,60.56
2019-05-11T22:12:39.535Z,60.25
2019-05-11T22:15:09.862Z,60.68
2019-05-11T22:17:39.819Z,61.15
2019-05-11T22:20:09.668Z,61.00
2019-05-11T22:22:39.288Z,61.22
2019-05-11T22:25:09.054Z,61.61
2019-05-11T22:27:38.774Z,61.90
2019-05-11T22:30:08.759Z,62.26
2019-05-11T22:32:38.407Z,62.65
2019-05-11T22:35:08.342Z,63.91
2019-05-11T22:37:38.809Z,63.99
2019-05-11T22:40:08.878Z,64.28
2019-05-11T22:42:38.063Z,64.89
2019-05-11T22:45:08.641Z,64.27
2019-05-11T22:47:39.389Z,64.75
2019-05-11T22:50:10.137Z,64.74
2019-05-11T22:52:40.279Z,65.09
2019-05-11T22:55:11.841Z,65.94
2019-05-11T22:57:40.789Z,65.67
2019-05-11T23:00:10.522Z,66.56
2019-05-11T23:02:39.257Z,63.36
2019-05-11T23:05:08.940Z,63.34
2019-05-11T23:07:41.490Z,63.60
2019-05-11T23:10:09.732Z,62.20
2019-05-11T23:12:38.737Z,62.71
2019-05-11T23:15:14.791Z,62.92
2019-05-11T23:17:43.550Z,61.72
2019-05-11T23:20:12.784Z,60.47
2019-05-11T23:22:56.669Z,61.07
2019-05-11T23:25:18.553Z,59.94
2019-05-11T23:27:48.548Z,60.11
2019-05-11T23:30:19.615Z,59.62
2019-05-11T23:32:50.834Z,59.58
2019-05-11T23:35:19.614Z,59.55
2019-05-11T23:37:50.149Z,59.46
2019-05-11T23:40:20.830Z,59.32
2019-05-11T23:42:49.599Z,61.00
2019-05-11T23:45:19.523Z,59.63
2019-05-11T23:47:49.176Z,59.45
2019-05-11T23:50:19.327Z,59.64
2019-05-11T23:52:53.395Z,59.96
2019-05-11T23:55:19.525Z,61.51
2019-05-11T23:57:48.977Z,60.83
